Time;durP1;ratioP1;P1;durP2;ratioP2;P2;SDS_P1;SDS_P2;PMS_P1;PMS_P2;Temp;Humidity;BMP_temperature;BMP_pressure;BME280_temperature;BME280_humidity;BME280_pressure;Samples;Min_cycle;Max_cycle;Signal;HPM_P1;HPM_P2
2023/07/08 00:02:11;;;;;;;8.57;3.28;;;;;;;-144.47;40.40;52514.50;5046914;28;20036;-67
2023/07/08 00:04:37;;;;;;;10.30;3.22;;;;;;;-144.47;40.51;52510.53;5041864;28;20036;-70
2023/07/08 00:07:03;;;;;;;9.55;3.15;;;;;;;-144.47;40.55;52534.34;5041348;28;20068;-70
2023/07/08 00:09:30;;;;;;;8.65;3.05;;;;;;;-144.47;40.74;52514.50;5048336;28;20021;-71
2023/07/08 00:11:56;;;;;;;16.45;3.50;;;;;;;-144.47;40.83;52518.47;5051920;28;20063;-71
2023/07/08 00:14:22;;;;;;;11.32;3.33;;;;;;;-144.47;41.01;52500.59;5050071;28;20025;-71
2023/07/08 00:16:47;;;;;;;7.78;2.85;;;;;;;-144.47;41.25;52530.38;5051044;28;20028;-71
2023/07/08 00:19:12;;;;;;;11.40;3.42;;;;;;;-144.47;41.28;52512.50;5051444;28;20043;-72
2023/07/08 00:21:39;;;;;;;9.07;3.50;;;;;;;-144.47;41.51;52542.28;5052002;28;20104;-70
2023/07/08 00:24:05;;;;;;;8.60;2.95;;;;;;;-144.47;41.66;52528.41;5029773;28;20033;-72
2023/07/08 00:26:31;;;;;;;12.32;3.70;;;;;;;-144.47;41.77;52546.25;5051162;28;20029;-70
2023/07/08 00:28:56;;;;;;;6.55;3.08;;;;;;;-144.47;41.92;52518.47;5051069;28;20583;-69
2023/07/08 00:31:23;;;;;;;7.95;2.85;;;;;;;-144.47;42.21;52526.41;5045126;28;20652;-70
2023/07/08 00:33:58;;;;;;;7.10;2.80;;;;;;;-144.47;42.27;52538.31;5049942;28;20028;-70
2023/07/08 00:36:26;;;;;;;7.07;2.90;;;;;;;-144.47;42.45;52508.53;5041301;23;20416;-69
2023/07/08 00:38:51;;;;;;;6.37;2.80;;;;;;;-144.47;42.52;52528.41;5034792;28;20029;-69
2023/07/08 00:41:40;;;;;;;6.50;2.80;;;;;;;-144.47;42.57;52526.41;5026406;28;20112;-69
2023/07/08 00:44:10;;;;;;;7.45;2.78;;;;;;;-144.47;42.80;52514.50;5036553;28;20028;-70
2023/07/08 00:46:55;;;;;;;7.70;3.15;;;;;;;-144.47;42.84;52496.63;5039896;28;20102;-69
2023/07/08 00:49:26;;;;;;;5.75;2.53;;;;;;;-144.47;43.04;52500.59;5037251;28;20083;-68
2023/07/08 00:51:51;;;;;;;9.15;2.90;;;;;;;-144.47;43.18;52518.47;5042935;28;20048;-69
2023/07/08 00:54:19;;;;;;;8.82;2.90;;;;;;;-144.47;43.48;52520.44;5046933;28;20071;-70
2023/07/08 00:56:48;;;;;;;8.18;2.78;;;;;;;-144.47;43.59;52524.41;5047034;28;20074;-69
2023/07/08 00:59:38;;;;;;;9.70;2.88;;;;;;;-144.47;43.52;52524.41;5047950;28;20121;-68
2023/07/08 01:02:09;;;;;;;6.97;3.10;;;;;;;-144.47;43.59;52506.53;5047899;28;20130;-69
2023/07/08 01:04:42;;;;;;;8.70;2.92;;;;;;;-144.47;43.79;52516.47;5046615;28;20087;-67
2023/07/08 01:07:08;;;;;;;16.23;3.17;;;;;;;-144.47;43.79;52526.41;5047961;28;20047;-68
2023/07/08 01:09:58;;;;;;;6.40;3.00;;;;;;;-144.47;43.86;52524.41;5047742;28;20186;-67
2023/07/08 01:12:41;;;;;;;6.43;2.72;;;;;;;-144.47;44.24;52522.44;5039420;28;20023;-69
2023/07/08 01:15:07;;;;;;;10.73;2.92;;;;;;;-144.47;44.40;52514.50;5046036;28;20033;-68
2023/07/08 01:17:33;;;;;;;8.27;3.35;;;;;;;-144.47;44.41;52534.34;5048489;28;20025;-68
2023/07/08 01:19:59;;;;;;;11.43;3.28;;;;;;;-144.47;44.36;52526.41;5046948;28;20120;-66
2023/07/08 01:22:25;;;;;;;7.10;3.45;;;;;;;-144.47;44.57;52530.38;5039747;28;20368;-69
2023/07/08 01:24:50;;;;;;;5.28;2.47;;;;;;;-144.47;44.76;52556.19;5044708;28;20516;-69
2023/07/08 01:27:19;;;;;;;6.13;2.78;;;;;;;-144.47;44.86;52524.41;5044977;28;20040;-68
2023/07/08 01:29:46;;;;;;;6.68;2.67;;;;;;;-144.47;44.94;52514.50;5047259;28;20032;-69
2023/07/08 01:32:17;;;;;;;8.75;2.80;;;;;;;-144.47;45.11;52530.38;5047436;28;20417;-67
2023/07/08 01:34:59;;;;;;;6.05;2.83;;;;;;;-144.47;45.23;52502.56;5035781;28;20534;-67
2023/07/08 01:37:51;;;;;;;9.35;2.90;;;;;;;-144.47;45.48;52522.44;5051513;28;20043;-67
2023/07/08 01:40:19;;;;;;;5.65;2.90;;;;;;;-144.47;45.64;52532.38;5032138;28;20041;-67
2023/07/08 01:42:45;;;;;;;5.93;2.80;;;;;;;-144.47;45.78;52514.50;5045841;28;20029;-69
2023/07/08 01:45:12;;;;;;;6.20;2.60;;;;;;;-144.47;45.98;52522.44;5050208;28;20501;-68
2023/07/08 01:47:40;;;;;;;7.97;3.05;;;;;;;-144.47;46.21;52526.41;5045932;28;20044;-69
2023/07/08 01:50:07;;;;;;;6.57;2.75;;;;;;;-144.47;46.43;52544.28;5047476;28;20051;-68
2023/07/08 01:52:32;;;;;;;9.85;2.67;;;;;;;-144.47;46.48;52534.34;5046570;28;20017;-69
2023/07/08 01:54:58;;;;;;;8.68;3.35;;;;;;;-144.47;46.78;52522.44;5046507;28;20659;-69
2023/07/08 01:57:23;;;;;;;8.40;2.80;;;;;;;-144.47;46.82;52512.50;5048298;28;20131;-70
2023/07/08 01:59:49;;;;;;;6.75;3.05;;;;;;;-144.47;46.99;52518.47;5047933;28;20016;-67
2023/07/08 02:02:14;;;;;;;6.20;3.05;;;;;;;-144.47;47.06;52526.41;5047477;28;20032;-70
2023/07/08 02:04:39;;;;;;;6.05;2.75;;;;;;;-144.47;47.47;52502.56;5046036;28;20048;-69
2023/07/08 02:07:05;;;;;;;7.60;2.83;;;;;;;-144.47;47.75;52516.47;5036873;28;20466;-69
2023/07/08 02:09:30;;;;;;;7.47;2.88;;;;;;;-144.47;47.99;52526.41;5041724;28;20464;-70
2023/07/08 02:11:56;;;;;;;7.68;2.80;;;;;;;-144.47;48.14;52524.41;5046598;28;20040;-67
2023/07/08 02:14:22;;;;;;;6.80;2.90;;;;;;;-144.47;48.51;52520.44;5048675;28;20092;-70
2023/07/08 02:16:47;;;;;;;6.55;3.28;;;;;;;-144.47;48.67;52520.44;5048095;28;20025;-71
2023/07/08 02:19:13;;;;;;;9.20;3.20;;;;;;;-144.47;49.03;52510.53;5047637;28;20098;-70
2023/07/08 02:21:39;;;;;;;9.93;2.67;;;;;;;-144.47;49.31;52482.72;5047160;28;20479;-69
2023/07/08 02:24:05;;;;;;;10.13;3.38;;;;;;;-144.47;49.68;52500.59;5047126;28;20059;-69
2023/07/08 02:26:34;;;;;;;6.28;2.88;;;;;;;-144.47;49.87;52542.28;5046878;28;20037;-70
2023/07/08 02:29:00;;;;;;;7.25;2.90;;;;;;;-144.47;50.43;52526.41;5035364;28;20029;-68
2023/07/08 02:31:26;;;;;;;10.30;3.75;;;;;;;-144.47;50.64;52522.44;5046623;28;20025;-67
2023/07/08 02:33:52;;;;;;;5.30;2.72;;;;;;;-144.47;50.63;52510.53;5046412;28;20036;-70
2023/07/08 02:36:18;;;;;;;12.07;3.13;;;;;;;-144.47;51.07;52504.56;5047219;28;20052;-69
2023/07/08 02:38:43;;;;;;;10.90;3.63;;;;;;;-144.47;51.38;52532.38;5030892;28;20067;-70
2023/07/08 02:41:08;;;;;;;14.90;3.60;;;;;;;-144.47;51.81;52504.56;5046917;28;20223;-68
2023/07/08 02:43:34;;;;;;;11.05;3.95;;;;;;;-144.47;51.87;52516.47;5060429;28;20115;-68
2023/07/08 02:45:59;;;;;;;11.30;3.95;;;;;;;-144.47;52.17;52514.50;5047458;28;20029;-72
2023/07/08 02:48:24;;;;;;;8.20;3.58;;;;;;;-144.47;52.47;52538.31;5047468;28;20017;-68
2023/07/08 02:50:50;;;;;;;7.18;2.95;;;;;;;-144.47;52.67;52556.19;5046536;28;20033;-70
2023/07/08 02:53:15;;;;;;;6.20;3.22;;;;;;;-144.47;52.86;52486.69;5047680;28;20453;-66
2023/07/08 02:55:42;;;;;;;7.55;3.45;;;;;;;-144.47;53.31;52522.44;5046235;28;20099;-70
2023/07/08 02:58:08;;;;;;;6.28;3.33;;;;;;;-144.47;53.43;52508.53;5048556;28;20564;-65
2023/07/08 03:00:37;;;;;;;7.82;3.17;;;;;;;-144.47;53.68;52532.38;5047102;28;20134;-70
2023/07/08 03:03:03;;;;;;;7.63;3.10;;;;;;;-144.47;53.78;52518.47;5044572;28;20086;-68
2023/07/08 03:05:29;;;;;;;7.90;3.50;;;;;;;-144.47;54.00;52530.38;5045398;28;20068;-69
2023/07/08 03:07:54;;;;;;;6.43;3.13;;;;;;;-144.47;54.25;52528.41;5047400;28;20025;-70
2023/07/08 03:10:19;;;;;;;15.73;3.20;;;;;;;-144.47;54.63;52518.47;5047206;28;20059;-70
2023/07/08 03:12:45;;;;;;;8.10;3.22;;;;;;;-144.47;54.65;52508.53;5046377;28;20414;-69
2023/07/08 03:15:10;;;;;;;7.40;2.90;;;;;;;-144.47;54.65;52528.41;5045717;28;20124;-69
2023/07/08 03:17:35;;;;;;;7.22;3.17;;;;;;;-144.47;54.71;52534.34;5047342;28;20044;-69
2023/07/08 03:20:01;;;;;;;13.18;3.10;;;;;;;-144.47;55.08;52558.19;5046195;28;20075;-70
2023/07/08 03:22:26;;;;;;;11.27;3.38;;;;;;;-144.47;55.31;52514.50;5047234;28;20033;-68
2023/07/08 03:24:51;;;;;;;8.63;3.38;;;;;;;-144.47;55.57;52526.41;5046208;28;20122;-69
2023/07/08 03:27:17;;;;;;;9.82;3.60;;;;;;;-144.47;55.79;52508.53;5028613;28;20090;-67
2023/07/08 03:29:42;;;;;;;9.80;3.22;;;;;;;-144.47;55.82;52534.34;5046408;28;20025;-69
2023/07/08 03:32:12;;;;;;;8.55;3.40;;;;;;;-144.47;55.87;52524.41;5047112;28;20630;-69
2023/07/08 03:34:38;;;;;;;6.72;3.10;;;;;;;-144.47;55.91;52508.53;5045870;28;20056;-67
2023/07/08 03:37:04;;;;;;;10.30;3.60;;;;;;;-144.47;56.01;52500.59;5054991;28;20032;-70
2023/07/08 03:39:31;;;;;;;7.78;3.30;;;;;;;-144.47;56.16;52514.50;5049031;28;20086;-69
2023/07/08 03:41:56;;;;;;;14.77;4.25;;;;;;;-144.47;56.07;52518.47;5050672;28;20491;-68
2023/07/08 03:44:22;;;;;;;8.13;3.92;;;;;;;-144.47;55.97;52516.47;5055731;28;20037;-69
2023/07/08 03:46:52;;;;;;;9.98;3.97;;;;;;;-144.47;56.21;52542.28;5050598;28;20422;-67
2023/07/08 03:49:23;;;;;;;9.93;3.97;;;;;;;-144.47;56.48;52518.47;5050175;28;20052;-67
2023/07/08 03:51:50;;;;;;;10.20;3.58;;;;;;;-144.47;56.07;52538.31;5031592;28;20021;-68
2023/07/08 03:54:17;;;;;;;9.15;4.15;;;;;;;-144.47;56.14;52506.53;5049680;28;20120;-67
2023/07/08 03:56:42;;;;;;;11.48;3.50;;;;;;;-144.47;56.24;52536.34;5052698;28;20020;-69
2023/07/08 03:59:09;;;;;;;14.63;4.78;;;;;;;-144.47;56.44;52520.44;5050870;28;20324;-68
2023/07/08 04:01:34;;;;;;;9.32;4.30;;;;;;;-144.47;56.48;52524.41;5050279;28;20032;-70
2023/07/08 04:04:00;;;;;;;9.02;3.90;;;;;;;-144.47;56.32;52534.34;5049904;28;20025;-69
2023/07/08 04:06:26;;;;;;;14.43;3.75;;;;;;;-144.47;55.97;52502.56;5049571;28;20024;-67
2023/07/08 04:08:52;;;;;;;16.23;3.88;;;;;;;-144.47;55.99;52534.34;5050379;28;20033;-69
2023/07/08 04:11:22;;;;;;;8.07;3.53;;;;;;;-144.47;56.10;52518.47;5049170;28;20063;-68
2023/07/08 04:13:48;;;;;;;10.45;3.60;;;;;;;-144.47;55.85;52538.31;5048856;28;20027;-70
2023/07/08 04:16:24;;;;;;;7.50;3.40;;;;;;;-144.47;55.41;52528.41;5049408;28;20059;-69
2023/07/08 04:18:53;;;;;;;11.20;3.10;;;;;;;-144.47;55.05;52510.53;5050284;28;20127;-69
2023/07/08 04:21:19;;;;;;;15.75;3.63;;;;;;;-144.47;54.95;52528.41;5048741;28;20453;-67
2023/07/08 04:23:44;;;;;;;7.40;3.53;;;;;;;-144.47;54.92;52542.28;5049412;28;20112;-69
2023/07/08 04:26:10;;;;;;;13.93;5.28;;;;;;;-144.47;54.67;52548.25;5049681;28;20056;-69
2023/07/08 04:28:35;;;;;;;10.30;3.50;;;;;;;-144.47;54.56;52518.47;5031445;28;20028;-68
2023/07/08 04:31:01;;;;;;;8.63;2.97;;;;;;;-144.47;54.50;52502.56;5049653;28;20439;-69
2023/07/08 04:33:27;;;;;;;6.88;3.60;;;;;;;-144.47;54.23;52522.44;5038366;28;20095;-69
2023/07/08 04:35:54;;;;;;;12.60;3.35;;;;;;;-144.47;54.00;52534.34;5048375;28;20146;-74
2023/07/08 04:38:22;;;;;;;8.50;3.50;;;;;;;-144.47;53.76;52524.41;5035381;28;20036;-70
2023/07/08 04:40:50;;;;;;;9.63;3.20;;;;;;;-144.47;53.56;52506.53;5049691;28;20536;-66
2023/07/08 04:43:16;;;;;;;7.18;3.63;;;;;;;-144.47;52.98;52542.28;5061494;28;20379;-69
2023/07/08 04:45:44;;;;;;;8.00;3.45;;;;;;;-144.47;52.69;52518.47;5047461;28;20052;-69
2023/07/08 04:48:14;;;;;;;8.13;3.38;;;;;;;-144.47;52.73;52534.34;5041649;28;20104;-68
2023/07/08 04:50:44;;;;;;;7.78;3.10;;;;;;;-144.47;52.55;52540.31;5048743;28;20040;-69
2023/07/08 04:53:11;;;;;;;11.32;3.45;;;;;;;-144.47;52.54;52482.72;5049244;28;20477;-67
2023/07/08 04:55:39;;;;;;;7.25;3.58;;;;;;;-144.47;52.35;52538.31;5048436;28;20025;-71
2023/07/08 04:58:04;;;;;;;7.47;3.65;;;;;;;-144.47;52.03;52522.44;5051407;28;20102;-70
2023/07/08 05:00:30;;;;;;;9.23;3.28;;;;;;;-144.47;51.84;52520.44;5049220;28;20036;-67
2023/07/08 05:02:55;;;;;;;8.40;3.08;;;;;;;-144.47;52.07;52516.47;5048861;28;20366;-69
2023/07/08 05:05:21;;;;;;;5.53;3.40;;;;;;;-144.47;51.74;52510.53;5047277;28;20028;-67
2023/07/08 05:07:46;;;;;;;8.98;3.63;;;;;;;-144.47;51.77;52530.38;5049623;28;20475;-69
2023/07/08 05:10:12;;;;;;;8.52;3.53;;;;;;;-144.47;51.46;52514.50;5018064;28;20105;-68
2023/07/08 05:12:37;;;;;;;9.90;3.90;;;;;;;-144.47;51.43;52506.53;5049146;28;20023;-69
2023/07/08 05:15:03;;;;;;;10.43;3.72;;;;;;;-144.47;51.17;52516.47;5047720;28;20413;-68
2023/07/08 05:17:29;;;;;;;8.52;3.80;;;;;;;-144.47;51.05;52518.47;5049207;28;20040;-66
2023/07/08 05:19:57;;;;;;;8.90;3.70;;;;;;;-144.47;51.00;52522.44;5047349;28;20029;-70
2023/07/08 05:22:25;;;;;;;5.70;2.95;;;;;;;-144.47;51.20;52536.34;5030928;28;20024;-67
2023/07/08 05:24:52;;;;;;;7.85;3.03;;;;;;;-144.47;51.40;52506.53;5048233;28;20028;-69
2023/07/08 05:27:18;;;;;;;7.22;3.70;;;;;;;-144.47;51.37;52514.50;5048310;28;20120;-69
2023/07/08 05:29:46;;;;;;;11.18;3.47;;;;;;;-144.47;51.48;52514.50;5048417;28;20477;-69
2023/07/08 05:32:12;;;;;;;7.88;3.45;;;;;;;-144.47;51.59;52528.41;5048990;28;20348;-69
2023/07/08 05:34:37;;;;;;;8.13;3.45;;;;;;;-144.47;51.47;52514.50;5053601;28;20044;-69
2023/07/08 05:37:03;;;;;;;10.48;3.05;;;;;;;-144.47;51.72;52488.69;5048144;28;20024;-68
2023/07/08 05:39:30;;;;;;;8.63;3.55;;;;;;;-144.47;51.56;52510.53;5050403;28;20547;-69
2023/07/08 05:41:55;;;;;;;9.20;3.20;;;;;;;-144.47;51.45;52546.25;5036491;28;20047;-70
2023/07/08 05:44:21;;;;;;;10.50;3.63;;;;;;;-144.47;51.77;52526.41;5045402;28;20040;-68
2023/07/08 05:46:46;;;;;;;11.55;3.40;;;;;;;-144.47;51.77;52544.28;5048352;28;20037;-68
2023/07/08 05:49:12;;;;;;;9.45;3.65;;;;;;;-144.47;51.81;52514.50;5048257;28;20112;-70
2023/07/08 05:51:37;;;;;;;8.30;3.75;;;;;;;-144.47;51.48;52530.38;5029891;28;20111;-70
2023/07/08 05:54:03;;;;;;;6.03;3.17;;;;;;;-144.47;50.83;52526.41;5047429;28;20059;-66
2023/07/08 05:56:30;;;;;;;9.63;2.90;;;;;;;-144.47;51.42;52524.41;5056394;28;20028;-69
2023/07/08 05:58:55;;;;;;;6.88;3.10;;;;;;;-144.47;51.17;52518.47;5047439;28;20054;-70
2023/07/08 06:01:21;;;;;;;9.10;3.67;;;;;;;-144.47;51.59;52554.22;5047904;28;20069;-69
2023/07/08 06:03:47;;;;;;;10.98;3.47;;;;;;;-144.47;51.50;52524.41;5046617;28;20051;-69
2023/07/08 06:06:12;;;;;;;8.98;3.50;;;;;;;-144.47;51.34;52518.47;5046917;28;20029;-65
2023/07/08 06:08:37;;;;;;;8.35;2.97;;;;;;;-144.47;51.47;52518.47;5047263;28;20074;-69
2023/07/08 06:11:03;;;;;;;7.00;3.30;;;;;;;-144.47;52.22;52520.44;5048325;28;20025;-68
2023/07/08 06:13:28;;;;;;;6.72;3.47;;;;;;;-144.47;52.12;52518.47;5037133;28;20021;-69
2023/07/08 06:15:54;;;;;;;7.43;3.45;;;;;;;-144.47;52.10;52542.28;5040378;28;20120;-69
2023/07/08 06:18:19;;;;;;;6.88;2.63;;;;;;;-144.47;52.36;52534.34;5040232;28;20029;-66
2023/07/08 06:20:52;;;;;;;8.63;3.60;;;;;;;-144.47;52.40;52536.34;5042345;28;20128;-69
2023/07/08 06:23:17;;;;;;;8.48;3.33;;;;;;;-144.47;52.04;52566.13;5031000;28;20032;-68
2023/07/08 06:25:43;;;;;;;5.82;2.97;;;;;;;-144.47;52.11;52514.50;5053453;28;20032;-66
2023/07/08 06:28:08;;;;;;;11.07;4.13;;;;;;;-144.47;52.27;52544.28;5046514;28;20029;-69
2023/07/08 06:30:33;;;;;;;10.23;3.35;;;;;;;-144.47;52.15;52538.31;5042187;28;20043;-71
2023/07/08 06:32:59;;;;;;;7.53;3.53;;;;;;;-144.47;51.74;52530.38;5035478;28;20025;-70
2023/07/08 06:35:24;;;;;;;10.05;3.33;;;;;;;-144.47;51.77;52538.31;5039511;28;20025;-68
2023/07/08 06:37:49;;;;;;;13.13;3.65;;;;;;;-144.47;51.92;52560.16;5051096;22;20124;-70
2023/07/08 06:40:17;;;;;;;8.90;3.88;;;;;;;-144.47;51.94;52554.22;5017156;28;20503;-70
2023/07/08 06:42:42;;;;;;;7.43;3.15;;;;;;;-144.47;51.32;52538.31;5029608;28;20029;-71
2023/07/08 06:45:08;;;;;;;7.43;3.25;;;;;;;-144.47;51.17;52534.34;5023123;28;20029;-70
2023/07/08 06:47:34;;;;;;;5.80;3.05;;;;;;;-144.47;50.93;52556.19;5029598;28;20112;-69
2023/07/08 06:49:59;;;;;;;6.43;3.42;;;;;;;-144.47;50.32;52540.31;5026872;28;20466;-67
2023/07/08 06:52:24;;;;;;;14.90;3.63;;;;;;;-144.47;50.02;52526.41;5004573;28;20076;-69
2023/07/08 06:54:50;;;;;;;5.93;3.03;;;;;;;-144.47;49.65;52534.34;5021153;28;20053;-70
2023/07/08 06:57:15;;;;;;;7.18;3.20;;;;;;;-144.47;49.48;52546.25;5028526;28;20049;-72
2023/07/08 06:59:40;;;;;;;6.68;2.67;;;;;;;-144.47;48.81;52566.13;5028442;28;20061;-72
2023/07/08 07:02:06;;;;;;;6.15;3.20;;;;;;;-144.47;47.15;52542.28;5028437;28;20438;-70
2023/07/08 07:04:32;;;;;;;6.57;3.28;;;;;;;-144.47;46.22;52548.25;5026158;28;20073;-72
2023/07/08 07:06:57;;;;;;;7.28;3.30;;;;;;;-144.47;45.74;52574.06;5008302;28;20026;-72
2023/07/08 07:09:23;;;;;;;5.45;2.60;;;;;;;-144.47;45.13;52578.03;5026002;28;20032;-73
2023/07/08 07:11:48;;;;;;;8.32;3.40;;;;;;;-144.47;45.16;52562.16;5025688;28;20045;-67
2023/07/08 07:14:16;;;;;;;11.35;3.47;;;;;;;-144.47;45.08;52562.16;5024187;28;20094;-71
2023/07/08 07:16:42;;;;;;;5.50;3.22;;;;;;;-144.47;44.97;52540.31;5023678;28;20029;-69
2023/07/08 07:19:07;;;;;;;10.35;3.25;;;;;;;-144.47;44.16;52554.22;5028129;28;20105;-69
2023/07/08 07:21:32;;;;;;;9.52;3.45;;;;;;;-144.47;44.06;52556.19;5032276;28;20026;-70
2023/07/08 07:23:58;;;;;;;17.52;3.30;;;;;;;-144.47;43.95;52585.97;5032227;28;20025;-70
2023/07/08 07:26:23;;;;;;;7.75;3.20;;;;;;;-144.47;42.91;52587.97;5030892;28;20540;-68
2023/07/08 07:28:49;;;;;;;6.75;3.25;;;;;;;-144.47;41.81;52546.25;5011283;28;20724;-68
2023/07/08 07:31:14;;;;;;;7.20;3.08;;;;;;;-144.47;42.50;52578.03;5032823;28;20590;-73
2023/07/08 07:33:39;;;;;;;7.75;3.10;;;;;;;-144.47;41.55;52585.97;5030175;28;20021;-69
2023/07/08 07:36:05;;;;;;;7.60;3.75;;;;;;;-144.47;40.72;52572.09;5027008;28;20017;-68
2023/07/08 07:38:33;;;;;;;7.90;3.60;;;;;;;-144.47;39.81;52572.09;5030104;28;20113;-70
2023/07/08 07:40:59;;;;;;;;;;;;;;;-144.47;39.44;52556.19;5025181;28;20510;-71
2023/07/08 07:43:25;;;;;;;10.77;4.10;;;;;;;-144.47;39.37;52558.19;5038587;28;19921;-69
2023/07/08 07:45:52;;;;;;;7.47;3.03;;;;;;;-144.47;39.53;52593.94;5035666;28;20028;-73
2023/07/08 07:48:18;;;;;;;10.95;3.00;;;;;;;-144.47;39.10;52599.88;5038211;28;20029;-70
2023/07/08 07:50:46;;;;;;;9.90;3.75;;;;;;;-144.47;38.50;52554.22;5037916;28;20029;-69
2023/07/08 07:53:12;;;;;;;6.57;3.15;;;;;;;-144.47;38.55;52570.09;5030043;28;20043;-69
2023/07/08 07:55:38;;;;;;;8.85;3.42;;;;;;;-144.47;39.28;52572.09;5031874;28;20029;-71
2023/07/08 07:58:04;;;;;;;6.75;3.10;;;;;;;-144.47;38.67;52609.81;5031878;28;20021;-69
2023/07/08 08:00:30;;;;;;;10.18;3.10;;;;;;;-144.47;38.03;52574.06;5031281;28;20038;-71
2023/07/08 08:02:55;;;;;;;7.22;3.42;;;;;;;-144.47;38.25;52580.03;5018322;28;20398;-73
2023/07/08 08:05:21;;;;;;;7.00;3.20;;;;;;;-144.47;38.05;52582.00;5030823;28;20408;-70
2023/07/08 08:07:47;;;;;;;6.47;3.10;;;;;;;-144.47;38.01;52578.03;5025839;28;20031;-71
2023/07/08 08:10:13;;;;;;;7.55;3.40;;;;;;;-144.47;38.48;52564.13;5023051;28;20406;-71
2023/07/08 08:12:39;;;;;;;7.03;2.83;;;;;;;-144.47;38.81;52597.91;5030668;28;20029;-70
2023/07/08 08:15:05;;;;;;;6.95;2.92;;;;;;;-144.47;38.30;52580.03;5028463;28;20017;-69
2023/07/08 08:17:30;;;;;;;8.43;3.45;;;;;;;-144.47;38.35;52605.84;5027157;28;20101;-74
2023/07/08 08:19:56;;;;;;;8.20;3.30;;;;;;;-144.47;36.75;52601.88;5030955;28;20031;-67
2023/07/08 08:22:21;;;;;;;7.63;2.95;;;;;;;-144.47;36.38;52564.13;5030476;28;20030;-68
2023/07/08 08:24:47;;;;;;;7.93;3.40;;;;;;;-144.47;36.83;52591.94;5009795;28;20025;-71
2023/07/08 08:27:12;;;;;;;6.38;3.40;;;;;;;-144.47;36.39;52621.72;5022268;28;20061;-75
2023/07/08 08:29:38;;;;;;;4.93;2.67;;;;;;;-144.47;36.21;52609.81;5032762;28;20132;-75
2023/07/08 08:32:03;;;;;;;11.63;3.20;;;;;;;-144.47;35.71;52585.97;5031683;28;20088;-73
2023/07/08 08:34:28;;;;;;;8.40;2.92;;;;;;;-144.47;35.82;52637.63;5030628;28;20060;-74
2023/07/08 08:36:55;;;;;;;8.55;3.08;;;;;;;-144.47;35.78;52589.97;5028775;28;20032;-72
2023/07/08 08:39:21;;;;;;;8.30;2.83;;;;;;;-144.47;35.44;52639.59;5029817;28;20029;-75
2023/07/08 08:41:49;;;;;;;12.63;3.85;;;;;;;-144.47;35.04;52589.97;5026657;28;20083;-72
2023/07/08 08:44:20;;;;;;;7.28;2.97;;;;;;;-144.47;34.12;52615.78;5030961;28;20044;-73
2023/07/08 08:46:57;;;;;;;10.15;3.40;;;;;;;-144.47;34.37;52621.72;5026671;28;20654;-72
2023/07/08 08:49:39;;;;;;;8.50;3.40;;;;;;;-144.47;33.96;52623.72;5030775;28;20487;-73
2023/07/08 08:52:06;;;;;;;7.93;3.03;;;;;;;-144.47;33.70;52623.72;5031420;28;20056;-74
2023/07/08 08:54:31;;;;;;;15.23;3.65;;;;;;;-144.47;33.08;52601.88;5032154;28;20028;-73
2023/07/08 08:57:12;;;;;;;7.90;3.42;;;;;;;-144.47;33.18;52615.78;5032287;28;20025;-75
2023/07/08 08:59:43;;;;;;;8.70;3.40;;;;;;;-144.47;33.12;52631.66;5032054;28;20030;-73
2023/07/08 09:02:40;;;;;;;8.60;3.40;;;;;;;-144.47;32.60;52651.53;5032309;28;20116;-72
2023/07/08 09:05:09;;;;;;;10.00;3.55;;;;;;;-144.47;32.30;52613.78;5027750;28;20545;-74
2023/07/08 09:07:58;;;;;;;6.97;2.95;;;;;;;-144.47;32.30;52657.47;5027616;28;20033;-74
2023/07/08 09:10:59;;;;;;;6.00;3.00;;;;;;;-144.47;31.96;52619.75;5019913;28;20120;-74
2023/07/08 09:13:31;;;;;;;6.95;3.45;;;;;;;-144.47;32.15;52663.44;4979648;28;20438;-74
2023/07/08 09:16:39;;;;;;;7.28;3.40;;;;;;;-144.47;32.01;52645.56;5011747;28;20589;-73
2023/07/08 09:19:05;;;;;;;8.23;3.38;;;;;;;-144.47;31.59;52647.56;5031167;28;20030;-72
2023/07/08 09:21:41;;;;;;;7.63;3.60;;;;;;;-144.47;31.72;52661.44;5009382;28;20028;-73
2023/07/08 09:24:16;;;;;;;8.43;3.75;;;;;;;-144.47;31.33;52655.50;5030399;28;20495;-74
2023/07/08 09:26:41;;;;;;;7.35;3.17;;;;;;;-144.47;31.21;52669.41;5029566;28;20030;-72
2023/07/08 09:29:09;;;;;;;6.32;3.38;;;;;;;-144.47;31.40;52647.56;5030712;28;20029;-70
2023/07/08 09:31:39;;;;;;;11.20;3.70;;;;;;;-144.47;31.49;52659.47;5012769;28;20034;-71
2023/07/08 09:34:05;;;;;;;10.02;3.67;;;;;;;-144.47;31.67;52651.53;5012508;28;20117;-70
2023/07/08 09:36:31;;;;;;;15.55;3.75;;;;;;;-144.47;31.29;52683.31;5026773;28;20043;-71
2023/07/08 09:38:56;;;;;;;9.93;3.58;;;;;;;-144.47;31.10;52671.38;5028050;28;20034;-70
2023/07/08 09:41:34;;;;;;;9.80;3.17;;;;;;;-144.47;31.07;52683.31;5029230;28;20564;-69
2023/07/08 09:44:05;;;;;;;6.70;3.28;;;;;;;-144.47;30.59;52679.31;5021436;28;20033;-69
2023/07/08 09:46:37;;;;;;;8.25;3.53;;;;;;;-144.47;30.59;52657.47;5029616;28;20112;-70
2023/07/08 09:49:16;;;;;;;7.20;3.33;;;;;;;-144.47;30.63;52667.41;5030267;28;20533;-69
2023/07/08 09:51:41;;;;;;;9.90;3.53;;;;;;;-144.47;31.16;52671.38;5027776;28;20117;-69
2023/07/08 09:54:08;;;;;;;5.55;3.20;;;;;;;-144.47;30.94;52661.44;5010233;28;20104;-72
2023/07/08 09:56:33;;;;;;;6.82;3.20;;;;;;;-144.47;31.03;52677.34;5024147;28;20034;-71
2023/07/08 09:58:59;;;;;;;7.22;3.25;;;;;;;-144.47;31.42;52691.25;5022018;28;20040;-69
2023/07/08 10:01:27;;;;;;;7.30;3.80;;;;;;;-144.47;31.36;52701.19;5021196;28;20057;-68
2023/07/08 10:03:57;;;;;;;;;;;;;;;-144.47;31.36;52693.22;5027984;28;20513;-69
2023/07/08 10:06:27;;;;;;;7.65;3.75;;;;;;;-144.47;31.31;52677.34;5025781;28;20433;-69
2023/07/08 10:09:02;;;;;;;14.40;3.67;;;;;;;-144.47;31.24;52679.31;5030631;28;20026;-69
2023/07/08 10:11:42;;;;;;;8.50;3.30;;;;;;;-144.47;31.28;52703.16;5009868;28;20022;-74
2023/07/08 10:14:29;;;;;;;13.13;3.53;;;;;;;-144.47;31.51;52673.38;5028858;28;20017;-73
2023/07/08 10:16:54;;;;;;;13.52;4.18;;;;;;;-144.47;31.58;52697.19;5032152;28;20037;-70
2023/07/08 10:19:21;;;;;;;6.22;3.42;;;;;;;-144.47;31.50;52701.19;5029126;28;20075;-72
2023/07/08 10:21:58;;;;;;;11.10;3.33;;;;;;;-144.47;31.56;52679.31;5028406;28;20025;-70
2023/07/08 10:24:30;;;;;;;9.40;3.20;;;;;;;-144.47;31.63;52683.31;5029052;28;20033;-68
2023/07/08 10:27:26;;;;;;;6.20;3.25;;;;;;;-144.47;31.61;52701.19;5024347;28;20041;-69
2023/07/08 10:30:06;;;;;;;6.32;2.97;;;;;;;-144.47;31.13;52681.31;5028890;28;20029;-70
2023/07/08 10:33:13;;;;;;;8.68;3.33;;;;;;;-144.47;31.19;52699.19;5024413;28;20057;-70
2023/07/08 10:35:47;;;;;;;14.38;4.20;;;;;;;-144.47;30.67;52723.03;5026811;28;20110;-69
2023/07/08 10:38:34;;;;;;;7.60;3.40;;;;;;;-144.47;30.59;52730.97;5026227;28;20103;-68
2023/07/08 10:41:37;;;;;;;8.00;3.55;;;;;;;-144.47;30.21;52713.09;5026927;28;20033;-69
2023/07/08 10:44:21;;;;;;;10.50;3.72;;;;;;;-144.47;30.12;52701.19;5034785;28;20046;-69
2023/07/08 10:46:54;;;;;;;6.80;3.40;;;;;;;-144.47;29.79;52748.84;5026971;28;20041;-69
2023/07/08 10:49:39;;;;;;;7.05;3.42;;;;;;;-144.47;29.86;52734.94;5023591;28;20030;-70
2023/07/08 10:52:39;;;;;;;7.97;2.90;;;;;;;-144.47;29.12;52728.97;5027699;28;20075;-69
2023/07/08 10:55:31;;;;;;;6.72;3.25;;;;;;;-144.47;28.96;52736.94;5009496;28;20025;-70
2023/07/08 10:58:31;;;;;;;9.52;3.75;;;;;;;-144.47;28.27;52744.88;5021444;28;20028;-69
2023/07/08 11:01:09;;;;;;;8.77;4.03;;;;;;;-144.47;27.93;52715.06;5025725;28;20041;-68
2023/07/08 11:03:55;;;;;;;7.63;3.20;;;;;;;-144.47;27.94;52744.88;5022667;28;20038;-69
2023/07/08 11:06:42;;;;;;;7.85;3.20;;;;;;;-144.47;27.42;52760.75;5024297;28;20084;-71
2023/07/08 11:09:10;;;;;;;10.68;3.40;;;;;;;-144.47;27.58;52750.81;5023536;28;20100;-67
2023/07/08 11:11:56;;;;;;;5.57;3.08;;;;;;;-144.47;27.50;52740.91;5009067;28;20029;-71
2023/07/08 11:14:27;;;;;;;8.57;3.58;;;;;;;-144.47;27.31;52768.69;5028378;28;20109;-69
2023/07/08 11:17:09;;;;;;;7.53;3.03;;;;;;;-144.47;27.12;52780.63;5025884;28;20091;-68
2023/07/08 11:20:07;;;;;;;10.98;3.22;;;;;;;-144.47;27.15;52796.50;5029037;28;20032;-73
2023/07/08 11:22:36;;;;;;;7.78;4.00;;;;;;;-144.47;26.84;52804.44;4977598;28;20124;-72
2023/07/08 11:25:04;;;;;;;6.53;3.50;;;;;;;-144.47;26.69;52796.50;5024164;28;20029;-67
2023/07/08 11:27:38;;;;;;;4.82;2.92;;;;;;;-144.47;25.12;52770.69;5027598;28;20116;-71